sensor_id;sensor_type;location;lat;lon;timestamp;P1;durP1;ratioP1;P2;durP2;ratioP2
74528;SDS011;63009;52.584;5.932;2023-11-19T00:00:09;17.27;;;4.65;;
74528;SDS011;63009;52.584;5.932;2023-11-19T00:02:38;26.80;;;6.55;;
74528;SDS011;63009;52.584;5.932;2023-11-19T00:05:04;21.27;;;5.13;;
74528;SDS011;63009;52.584;5.932;2023-11-19T00:07:31;17.73;;;5.07;;
74528;SDS011;63009;52.584;5.932;2023-11-19T00:09:57;18.05;;;4.60;;
74528;SDS011;63009;52.584;5.932;2023-11-19T00:12:22;17.17;;;4.73;;
74528;SDS011;63009;52.584;5.932;2023-11-19T00:14:47;18.93;;;5.03;;
74528;SDS011;63009;52.584;5.932;2023-11-19T00:17:12;18.37;;;5.13;;
74528;SDS011;63009;52.584;5.932;2023-11-19T00:19:38;17.27;;;5.70;;
74528;SDS011;63009;52.584;5.932;2023-11-19T00:22:03;15.90;;;4.20;;
74528;SDS011;63009;52.584;5.932;2023-11-19T00:24:29;16.25;;;4.20;;
74528;SDS011;63009;52.584;5.932;2023-11-19T00:26:55;17.73;;;3.95;;
74528;SDS011;63009;52.584;5.932;2023-11-19T00:29:21;15.07;;;3.58;;
74528;SDS011;63009;52.584;5.932;2023-11-19T00:31:46;20.67;;;4.38;;
74528;SDS011;63009;52.584;5.932;2023-11-19T00:34:12;18.27;;;3.90;;
74528;SDS011;63009;52.584;5.932;2023-11-19T00:36:37;13.60;;;3.50;;
74528;SDS011;63009;52.584;5.932;2023-11-19T00:39:02;17.23;;;3.93;;
74528;SDS011;63009;52.584;5.932;2023-11-19T00:41:28;15.00;;;3.50;;
74528;SDS011;63009;52.584;5.932;2023-11-19T00:43:53;19.38;;;4.10;;
74528;SDS011;63009;52.584;5.932;2023-11-19T00:46:18;18.83;;;4.53;;
74528;SDS011;63009;52.584;5.932;2023-11-19T00:48:44;18.97;;;4.00;;
74528;SDS011;63009;52.584;5.932;2023-11-19T00:51:11;17.17;;;4.22;;
74528;SDS011;63009;52.584;5.932;2023-11-19T00:53:36;23.42;;;3.92;;
74528;SDS011;63009;52.584;5.932;2023-11-19T00:56:02;21.33;;;3.37;;
74528;SDS011;63009;52.584;5.932;2023-11-19T00:58:27;14.77;;;3.72;;
74528;SDS011;63009;52.584;5.932;2023-11-19T01:00:52;14.77;;;3.03;;
74528;SDS011;63009;52.584;5.932;2023-11-19T01:03:18;17.67;;;3.53;;
74528;SDS011;63009;52.584;5.932;2023-11-19T01:05:43;19.60;;;4.23;;
74528;SDS011;63009;52.584;5.932;2023-11-19T01:08:09;19.83;;;4.35;;
74528;SDS011;63009;52.584;5.932;2023-11-19T01:10:36;15.25;;;2.70;;
74528;SDS011;63009;52.584;5.932;2023-11-19T01:13:02;14.77;;;3.10;;
74528;SDS011;63009;52.584;5.932;2023-11-19T01:15:30;15.30;;;3.10;;
74528;SDS011;63009;52.584;5.932;2023-11-19T01:17:56;16.40;;;3.45;;
74528;SDS011;63009;52.584;5.932;2023-11-19T01:20:21;18.87;;;4.17;;
74528;SDS011;63009;52.584;5.932;2023-11-19T01:22:47;17.63;;;3.80;;
74528;SDS011;63009;52.584;5.932;2023-11-19T01:25:13;15.30;;;3.00;;
74528;SDS011;63009;52.584;5.932;2023-11-19T01:27:38;17.15;;;3.10;;
74528;SDS011;63009;52.584;5.932;2023-11-19T01:30:04;15.90;;;2.53;;
74528;SDS011;63009;52.584;5.932;2023-11-19T01:32:31;17.48;;;3.13;;
74528;SDS011;63009;52.584;5.932;2023-11-19T01:34:56;17.38;;;2.58;;
74528;SDS011;63009;52.584;5.932;2023-11-19T01:37:21;16.13;;;2.67;;
74528;SDS011;63009;52.584;5.932;2023-11-19T01:39:46;27.10;;;4.80;;
74528;SDS011;63009;52.584;5.932;2023-11-19T01:42:12;20.08;;;3.95;;
74528;SDS011;63009;52.584;5.932;2023-11-19T01:44:38;18.70;;;3.50;;
74528;SDS011;63009;52.584;5.932;2023-11-19T01:47:03;19.17;;;3.63;;
74528;SDS011;63009;52.584;5.932;2023-11-19T01:49:30;17.65;;;3.10;;
74528;SDS011;63009;52.584;5.932;2023-11-19T01:51:57;17.33;;;3.20;;
74528;SDS011;63009;52.584;5.932;2023-11-19T01:54:23;16.08;;;2.53;;
74528;SDS011;63009;52.584;5.932;2023-11-19T01:56:49;15.45;;;2.63;;
74528;SDS011;63009;52.584;5.932;2023-11-19T01:59:14;15.95;;;2.90;;
74528;SDS011;63009;52.584;5.932;2023-11-19T02:01:41;19.02;;;3.58;;
74528;SDS011;63009;52.584;5.932;2023-11-19T02:04:07;16.17;;;3.90;;
74528;SDS011;63009;52.584;5.932;2023-11-19T02:06:33;12.73;;;3.13;;
74528;SDS011;63009;52.584;5.932;2023-11-19T02:08:59;22.83;;;4.80;;
74528;SDS011;63009;52.584;5.932;2023-11-19T02:11:25;21.48;;;3.30;;
74528;SDS011;63009;52.584;5.932;2023-11-19T02:13:54;21.25;;;3.38;;
74528;SDS011;63009;52.584;5.932;2023-11-19T02:16:20;16.33;;;3.00;;
74528;SDS011;63009;52.584;5.932;2023-11-19T02:18:45;28.70;;;4.77;;
74528;SDS011;63009;52.584;5.932;2023-11-19T02:21:10;21.70;;;4.88;;
74528;SDS011;63009;52.584;5.932;2023-11-19T02:23:36;24.45;;;3.92;;
74528;SDS011;63009;52.584;5.932;2023-11-19T02:28:48;21.15;;;4.25;;
74528;SDS011;63009;52.584;5.932;2023-11-19T02:31:13;21.38;;;3.95;;
74528;SDS011;63009;52.584;5.932;2023-11-19T02:33:39;21.52;;;4.03;;
74528;SDS011;63009;52.584;5.932;2023-11-19T02:36:05;17.00;;;3.42;;
74528;SDS011;63009;52.584;5.932;2023-11-19T02:38:34;16.02;;;3.63;;
74528;SDS011;63009;52.584;5.932;2023-11-19T02:41:03;21.42;;;4.22;;
74528;SDS011;63009;52.584;5.932;2023-11-19T02:43:31;24.30;;;4.90;;
74528;SDS011;63009;52.584;5.932;2023-11-19T02:45:58;26.15;;;5.13;;
74528;SDS011;63009;52.584;5.932;2023-11-19T02:48:26;26.00;;;4.80;;
74528;SDS011;63009;52.584;5.932;2023-11-19T02:50:52;27.60;;;5.10;;
74528;SDS011;63009;52.584;5.932;2023-11-19T02:53:17;23.10;;;3.97;;
74528;SDS011;63009;52.584;5.932;2023-11-19T02:55:43;23.23;;;3.80;;
74528;SDS011;63009;52.584;5.932;2023-11-19T02:58:13;20.35;;;5.20;;
74528;SDS011;63009;52.584;5.932;2023-11-19T03:00:45;21.83;;;4.82;;
74528;SDS011;63009;52.584;5.932;2023-11-19T03:03:17;24.90;;;3.80;;
74528;SDS011;63009;52.584;5.932;2023-11-19T03:05:45;25.63;;;4.30;;
74528;SDS011;63009;52.584;5.932;2023-11-19T03:08:12;22.52;;;4.10;;
74528;SDS011;63009;52.584;5.932;2023-11-19T03:10:37;22.52;;;4.22;;
74528;SDS011;63009;52.584;5.932;2023-11-19T03:13:03;25.73;;;4.25;;
74528;SDS011;63009;52.584;5.932;2023-11-19T03:15:29;23.23;;;3.37;;
74528;SDS011;63009;52.584;5.932;2023-11-19T03:17:54;21.73;;;3.80;;
74528;SDS011;63009;52.584;5.932;2023-11-19T03:20:19;28.30;;;5.13;;
74528;SDS011;63009;52.584;5.932;2023-11-19T03:22:45;24.77;;;5.22;;
74528;SDS011;63009;52.584;5.932;2023-11-19T03:25:11;21.63;;;4.50;;
74528;SDS011;63009;52.584;5.932;2023-11-19T03:27:37;25.38;;;5.13;;
74528;SDS011;63009;52.584;5.932;2023-11-19T03:30:04;25.75;;;4.32;;
74528;SDS011;63009;52.584;5.932;2023-11-19T03:32:36;20.13;;;3.88;;
74528;SDS011;63009;52.584;5.932;2023-11-19T03:35:02;24.17;;;3.75;;
74528;SDS011;63009;52.584;5.932;2023-11-19T03:37:29;29.30;;;4.35;;
74528;SDS011;63009;52.584;5.932;2023-11-19T03:39:54;19.98;;;3.88;;
74528;SDS011;63009;52.584;5.932;2023-11-19T03:42:22;25.40;;;4.47;;
74528;SDS011;63009;52.584;5.932;2023-11-19T03:44:48;22.48;;;4.38;;
74528;SDS011;63009;52.584;5.932;2023-11-19T03:47:14;19.98;;;4.05;;
74528;SDS011;63009;52.584;5.932;2023-11-19T03:49:40;24.00;;;3.92;;
74528;SDS011;63009;52.584;5.932;2023-11-19T03:52:05;24.50;;;3.60;;
74528;SDS011;63009;52.584;5.932;2023-11-19T03:54:30;26.15;;;3.95;;
74528;SDS011;63009;52.584;5.932;2023-11-19T03:56:57;21.48;;;3.75;;
74528;SDS011;63009;52.584;5.932;2023-11-19T03:59:24;22.63;;;4.20;;
74528;SDS011;63009;52.584;5.932;2023-11-19T04:01:50;18.27;;;3.95;;
74528;SDS011;63009;52.584;5.932;2023-11-19T04:04:16;25.90;;;4.00;;
74528;SDS011;63009;52.584;5.932;2023-11-19T04:06:41;28.57;;;4.67;;
74528;SDS011;63009;52.584;5.932;2023-11-19T04:09:06;22.70;;;4.53;;
74528;SDS011;63009;52.584;5.932;2023-11-19T04:11:32;22.05;;;4.78;;
74528;SDS011;63009;52.584;5.932;2023-11-19T04:13:58;24.63;;;5.30;;
74528;SDS011;63009;52.584;5.932;2023-11-19T04:16:26;27.83;;;4.80;;
74528;SDS011;63009;52.584;5.932;2023-11-19T04:18:57;27.65;;;3.75;;
74528;SDS011;63009;52.584;5.932;2023-11-19T04:21:23;24.52;;;4.80;;
74528;SDS011;63009;52.584;5.932;2023-11-19T04:23:48;26.52;;;3.58;;
74528;SDS011;63009;52.584;5.932;2023-11-19T04:26:14;23.15;;;4.05;;
74528;SDS011;63009;52.584;5.932;2023-11-19T04:28:40;21.05;;;4.38;;
74528;SDS011;63009;52.584;5.932;2023-11-19T04:31:06;20.42;;;3.80;;
74528;SDS011;63009;52.584;5.932;2023-11-19T04:33:31;27.48;;;3.83;;
74528;SDS011;63009;52.584;5.932;2023-11-19T04:35:56;27.43;;;4.87;;
74528;SDS011;63009;52.584;5.932;2023-11-19T04:38:21;26.87;;;5.20;;
74528;SDS011;63009;52.584;5.932;2023-11-19T04:40:47;26.23;;;5.57;;
74528;SDS011;63009;52.584;5.932;2023-11-19T04:43:12;22.00;;;4.27;;
74528;SDS011;63009;52.584;5.932;2023-11-19T04:45:38;25.88;;;5.10;;
74528;SDS011;63009;52.584;5.932;2023-11-19T04:48:04;27.73;;;4.60;;
74528;SDS011;63009;52.584;5.932;2023-11-19T04:50:30;25.17;;;4.30;;
74528;SDS011;63009;52.584;5.932;2023-11-19T04:52:55;23.73;;;3.75;;
74528;SDS011;63009;52.584;5.932;2023-11-19T04:55:23;27.15;;;4.35;;
74528;SDS011;63009;52.584;5.932;2023-11-19T04:57:48;20.73;;;4.43;;
74528;SDS011;63009;52.584;5.932;2023-11-19T05:00:14;22.65;;;4.25;;
74528;SDS011;63009;52.584;5.932;2023-11-19T05:02:39;24.77;;;4.53;;
74528;SDS011;63009;52.584;5.932;2023-11-19T05:05:04;31.17;;;4.35;;
74528;SDS011;63009;52.584;5.932;2023-11-19T05:07:30;34.00;;;4.30;;
74528;SDS011;63009;52.584;5.932;2023-11-19T05:09:56;18.23;;;4.05;;
74528;SDS011;63009;52.584;5.932;2023-11-19T05:12:21;29.23;;;4.25;;
74528;SDS011;63009;52.584;5.932;2023-11-19T05:14:48;23.50;;;4.28;;
74528;SDS011;63009;52.584;5.932;2023-11-19T05:17:15;16.52;;;3.90;;
74528;SDS011;63009;52.584;5.932;2023-11-19T05:19:42;25.45;;;5.32;;
74528;SDS011;63009;52.584;5.932;2023-11-19T05:22:08;25.07;;;4.47;;
74528;SDS011;63009;52.584;5.932;2023-11-19T05:24:33;20.17;;;3.13;;
74528;SDS011;63009;52.584;5.932;2023-11-19T05:26:59;26.15;;;4.43;;
74528;SDS011;63009;52.584;5.932;2023-11-19T05:29:24;26.23;;;4.03;;
74528;SDS011;63009;52.584;5.932;2023-11-19T05:31:49;25.63;;;4.40;;
74528;SDS011;63009;52.584;5.932;2023-11-19T05:34:14;23.42;;;4.20;;
74528;SDS011;63009;52.584;5.932;2023-11-19T05:36:41;23.60;;;4.20;;
74528;SDS011;63009;52.584;5.932;2023-11-19T05:39:06;27.23;;;4.22;;
74528;SDS011;63009;52.584;5.932;2023-11-19T05:41:32;23.00;;;4.63;;
74528;SDS011;63009;52.584;5.932;2023-11-19T05:43:57;25.67;;;4.80;;
74528;SDS011;63009;52.584;5.932;2023-11-19T05:46:22;21.57;;;4.70;;
74528;SDS011;63009;52.584;5.932;2023-11-19T05:48:48;20.53;;;4.30;;
74528;SDS011;63009;52.584;5.932;2023-11-19T05:51:13;26.00;;;4.97;;
74528;SDS011;63009;52.584;5.932;2023-11-19T05:53:40;27.38;;;5.10;;
74528;SDS011;63009;52.584;5.932;2023-11-19T05:56:05;21.70;;;3.88;;
74528;SDS011;63009;52.584;5.932;2023-11-19T05:58:34;19.38;;;3.75;;
74528;SDS011;63009;52.584;5.932;2023-11-19T06:01:00;28.00;;;4.60;;
74528;SDS011;63009;52.584;5.932;2023-11-19T06:03:26;27.30;;;5.13;;
74528;SDS011;63009;52.584;5.932;2023-11-19T06:05:52;24.30;;;4.15;;
74528;SDS011;63009;52.584;5.932;2023-11-19T06:08:17;19.27;;;4.60;;
74528;SDS011;63009;52.584;5.932;2023-11-19T06:10:43;21.05;;;3.65;;
74528;SDS011;63009;52.584;5.932;2023-11-19T06:13:11;22.45;;;4.28;;
74528;SDS011;63009;52.584;5.932;2023-11-19T06:15:37;27.02;;;4.65;;
74528;SDS011;63009;52.584;5.932;2023-11-19T06:18:02;28.37;;;4.30;;
74528;SDS011;63009;52.584;5.932;2023-11-19T06:20:32;24.63;;;3.72;;
74528;SDS011;63009;52.584;5.932;2023-11-19T06:22:58;29.13;;;5.28;;
74528;SDS011;63009;52.584;5.932;2023-11-19T06:25:24;35.33;;;5.40;;
74528;SDS011;63009;52.584;5.932;2023-11-19T06:27:50;28.67;;;5.00;;
74528;SDS011;63009;52.584;5.932;2023-11-19T06:30:16;23.95;;;4.78;;
74528;SDS011;63009;52.584;5.932;2023-11-19T06:32:41;19.85;;;3.80;;
74528;SDS011;63009;52.584;5.932;2023-11-19T06:35:07;21.02;;;3.85;;
74528;SDS011;63009;52.584;5.932;2023-11-19T06:37:33;23.83;;;3.58;;
74528;SDS011;63009;52.584;5.932;2023-11-19T06:39:58;24.10;;;4.15;;
74528;SDS011;63009;52.584;5.932;2023-11-19T06:42:24;26.38;;;5.72;;
74528;SDS011;63009;52.584;5.932;2023-11-19T06:44:49;31.87;;;4.03;;
74528;SDS011;63009;52.584;5.932;2023-11-19T06:47:14;22.23;;;2.77;;
74528;SDS011;63009;52.584;5.932;2023-11-19T06:49:40;25.15;;;3.85;;
74528;SDS011;63009;52.584;5.932;2023-11-19T06:52:05;26.63;;;4.57;;
74528;SDS011;63009;52.584;5.932;2023-11-19T06:54:30;29.03;;;4.50;;
74528;SDS011;63009;52.584;5.932;2023-11-19T06:56:56;24.80;;;4.38;;
74528;SDS011;63009;52.584;5.932;2023-11-19T06:59:22;21.92;;;3.65;;
74528;SDS011;63009;52.584;5.932;2023-11-19T07:01:47;24.27;;;5.43;;
74528;SDS011;63009;52.584;5.932;2023-11-19T07:04:13;21.48;;;4.03;;
74528;SDS011;63009;52.584;5.932;2023-11-19T07:06:38;26.00;;;3.97;;
74528;SDS011;63009;52.584;5.932;2023-11-19T07:09:07;24.95;;;4.18;;
74528;SDS011;63009;52.584;5.932;2023-11-19T07:11:38;18.90;;;3.85;;
74528;SDS011;63009;52.584;5.932;2023-11-19T07:14:05;22.27;;;4.47;;
74528;SDS011;63009;52.584;5.932;2023-11-19T07:16:34;15.75;;;3.00;;
74528;SDS011;63009;52.584;5.932;2023-11-19T07:19:03;23.17;;;3.42;;
74528;SDS011;63009;52.584;5.932;2023-11-19T07:21:29;24.83;;;3.65;;
74528;SDS011;63009;52.584;5.932;2023-11-19T07:23:54;20.05;;;3.60;;
74528;SDS011;63009;52.584;5.932;2023-11-19T07:26:21;25.73;;;4.47;;
74528;SDS011;63009;52.584;5.932;2023-11-19T07:28:47;21.00;;;3.88;;
74528;SDS011;63009;52.584;5.932;2023-11-19T07:31:13;29.67;;;4.78;;
74528;SDS011;63009;52.584;5.932;2023-11-19T07:33:39;23.02;;;3.58;;
74528;SDS011;63009;52.584;5.932;2023-11-19T07:36:04;26.95;;;4.78;;
74528;SDS011;63009;52.584;5.932;2023-11-19T07:38:30;23.98;;;3.97;;
74528;SDS011;63009;52.584;5.932;2023-11-19T07:40:55;20.52;;;3.58;;
74528;SDS011;63009;52.584;5.932;2023-11-19T07:43:21;26.17;;;3.25;;
74528;SDS011;63009;52.584;5.932;2023-11-19T07:45:46;18.00;;;3.53;;
74528;SDS011;63009;52.584;5.932;2023-11-19T07:48:11;20.83;;;4.18;;
74528;SDS011;63009;52.584;5.932;2023-11-19T07:50:39;21.40;;;4.00;;
74528;SDS011;63009;52.584;5.932;2023-11-19T07:53:07;24.13;;;4.20;;
74528;SDS011;63009;52.584;5.932;2023-11-19T07:55:33;25.55;;;3.42;;
74528;SDS011;63009;52.584;5.932;2023-11-19T07:57:59;22.33;;;3.63;;
74528;SDS011;63009;52.584;5.932;2023-11-19T08:00:24;24.03;;;5.20;;
74528;SDS011;63009;52.584;5.932;2023-11-19T08:02:49;22.67;;;3.90;;
74528;SDS011;63009;52.584;5.932;2023-11-19T08:05:15;27.87;;;4.67;;
74528;SDS011;63009;52.584;5.932;2023-11-19T08:07:40;21.13;;;4.07;;
74528;SDS011;63009;52.584;5.932;2023-11-19T08:10:06;25.60;;;3.63;;
74528;SDS011;63009;52.584;5.932;2023-11-19T08:12:34;23.85;;;3.53;;
74528;SDS011;63009;52.584;5.932;2023-11-19T08:15:00;22.98;;;3.92;;
74528;SDS011;63009;52.584;5.932;2023-11-19T08:17:25;22.35;;;3.35;;
74528;SDS011;63009;52.584;5.932;2023-11-19T08:19:51;23.65;;;3.83;;
74528;SDS011;63009;52.584;5.932;2023-11-19T08:22:16;19.90;;;4.30;;
74528;SDS011;63009;52.584;5.932;2023-11-19T08:24:42;22.60;;;3.95;;
74528;SDS011;63009;52.584;5.932;2023-11-19T08:27:08;16.08;;;3.80;;
74528;SDS011;63009;52.584;5.932;2023-11-19T08:29:33;20.67;;;3.58;;
74528;SDS011;63009;52.584;5.932;2023-11-19T08:32:00;17.50;;;2.97;;
74528;SDS011;63009;52.584;5.932;2023-11-19T08:34:26;19.38;;;4.38;;
74528;SDS011;63009;52.584;5.932;2023-11-19T08:36:52;20.40;;;3.67;;
74528;SDS011;63009;52.584;5.932;2023-11-19T08:39:21;26.70;;;3.45;;
74528;SDS011;63009;52.584;5.932;2023-11-19T08:41:47;26.00;;;4.38;;
74528;SDS011;63009;52.584;5.932;2023-11-19T08:44:13;23.38;;;5.38;;
74528;SDS011;63009;52.584;5.932;2023-11-19T08:46:38;25.05;;;4.28;;
74528;SDS011;63009;52.584;5.932;2023-11-19T08:49:05;30.60;;;4.60;;
74528;SDS011;63009;52.584;5.932;2023-11-19T08:51:30;20.10;;;4.57;;
74528;SDS011;63009;52.584;5.932;2023-11-19T08:53:56;23.30;;;4.60;;
74528;SDS011;63009;52.584;5.932;2023-11-19T08:56:22;15.52;;;4.03;;
74528;SDS011;63009;52.584;5.932;2023-11-19T08:58:47;22.17;;;3.80;;
74528;SDS011;63009;52.584;5.932;2023-11-19T09:01:13;21.23;;;3.80;;
74528;SDS011;63009;52.584;5.932;2023-11-19T09:03:38;33.75;;;4.78;;
74528;SDS011;63009;52.584;5.932;2023-11-19T09:06:03;21.63;;;3.93;;
74528;SDS011;63009;52.584;5.932;2023-11-19T09:08:29;19.65;;;3.20;;
74528;SDS011;63009;52.584;5.932;2023-11-19T09:10:54;20.67;;;4.07;;
74528;SDS011;63009;52.584;5.932;2023-11-19T09:13:19;22.20;;;4.23;;
74528;SDS011;63009;52.584;5.932;2023-11-19T09:15:45;27.98;;;4.15;;
74528;SDS011;63009;52.584;5.932;2023-11-19T09:18:10;19.95;;;3.17;;
74528;SDS011;63009;52.584;5.932;2023-11-19T09:20:36;22.50;;;4.73;;
74528;SDS011;63009;52.584;5.932;2023-11-19T09:23:03;23.92;;;4.47;;
74528;SDS011;63009;52.584;5.932;2023-11-19T09:25:30;16.98;;;3.38;;
74528;SDS011;63009;52.584;5.932;2023-11-19T09:27:55;21.77;;;4.43;;
74528;SDS011;63009;52.584;5.932;2023-11-19T09:30:21;23.97;;;3.50;;
74528;SDS011;63009;52.584;5.932;2023-11-19T09:32:46;19.37;;;3.67;;
74528;SDS011;63009;52.584;5.932;2023-11-19T09:35:11;25.37;;;4.43;;
74528;SDS011;63009;52.584;5.932;2023-11-19T09:37:39;25.05;;;3.67;;
74528;SDS011;63009;52.584;5.932;2023-11-19T09:40:05;25.42;;;4.45;;
74528;SDS011;63009;52.584;5.932;2023-11-19T09:42:36;23.80;;;3.67;;
74528;SDS011;63009;52.584;5.932;2023-11-19T09:45:12;25.38;;;4.43;;
74528;SDS011;63009;52.584;5.932;2023-11-19T09:47:42;25.65;;;3.83;;
74528;SDS011;63009;52.584;5.932;2023-11-19T09:50:10;21.10;;;4.53;;
74528;SDS011;63009;52.584;5.932;2023-11-19T09:52:41;22.63;;;5.43;;
74528;SDS011;63009;52.584;5.932;2023-11-19T09:55:07;29.38;;;7.38;;
74528;SDS011;63009;52.584;5.932;2023-11-19T09:57:33;30.27;;;9.15;;
74528;SDS011;63009;52.584;5.932;2023-11-19T09:59:59;27.75;;;7.25;;
74528;SDS011;63009;52.584;5.932;2023-11-19T10:02:26;28.65;;;5.72;;
74528;SDS011;63009;52.584;5.932;2023-11-19T10:07:19;25.85;;;5.68;;
74528;SDS011;63009;52.584;5.932;2023-11-19T10:09:46;24.00;;;4.43;;
74528;SDS011;63009;52.584;5.932;2023-11-19T10:12:12;28.45;;;5.55;;
74528;SDS011;63009;52.584;5.932;2023-11-19T10:14:37;24.60;;;6.07;;
74528;SDS011;63009;52.584;5.932;2023-11-19T10:17:04;24.23;;;4.82;;
74528;SDS011;63009;52.584;5.932;2023-11-19T10:22:02;25.52;;;5.45;;
74528;SDS011;63009;52.584;5.932;2023-11-19T10:24:31;26.60;;;5.07;;
74528;SDS011;63009;52.584;5.932;2023-11-19T10:26:59;24.48;;;5.35;;
74528;SDS011;63009;52.584;5.932;2023-11-19T10:29:24;24.33;;;5.25;;
74528;SDS011;63009;52.584;5.932;2023-11-19T10:31:56;21.47;;;3.80;;
74528;SDS011;63009;52.584;5.932;2023-11-19T10:34:25;26.88;;;4.00;;
74528;SDS011;63009;52.584;5.932;2023-11-19T10:36:52;27.00;;;4.57;;
74528;SDS011;63009;52.584;5.932;2023-11-19T10:39:17;28.75;;;5.25;;
74528;SDS011;63009;52.584;5.932;2023-11-19T10:41:43;26.60;;;4.30;;
74528;SDS011;63009;52.584;5.932;2023-11-19T10:44:08;30.95;;;5.82;;
74528;SDS011;63009;52.584;5.932;2023-11-19T10:49:04;21.38;;;4.90;;
74528;SDS011;63009;52.584;5.932;2023-11-19T10:51:31;24.75;;;4.70;;
74528;SDS011;63009;52.584;5.932;2023-11-19T10:53:58;22.13;;;3.55;;
74528;SDS011;63009;52.584;5.932;2023-11-19T10:56:33;23.80;;;3.58;;
74528;SDS011;63009;52.584;5.932;2023-11-19T10:58:59;24.00;;;4.32;;
74528;SDS011;63009;52.584;5.932;2023-11-19T11:01:37;20.35;;;4.18;;
74528;SDS011;63009;52.584;5.932;2023-11-19T11:04:12;25.20;;;7.70;;
74528;SDS011;63009;52.584;5.932;2023-11-19T11:06:40;23.35;;;7.10;;
74528;SDS011;63009;52.584;5.932;2023-11-19T11:09:06;27.50;;;6.30;;
74528;SDS011;63009;52.584;5.932;2023-11-19T11:11:37;28.10;;;4.88;;
74528;SDS011;63009;52.584;5.932;2023-11-19T11:14:03;28.63;;;4.72;;
74528;SDS011;63009;52.584;5.932;2023-11-19T11:16:30;23.17;;;5.55;;
74528;SDS011;63009;52.584;5.932;2023-11-19T11:18:56;19.63;;;3.60;;
74528;SDS011;63009;52.584;5.932;2023-11-19T11:21:24;27.98;;;4.53;;
74528;SDS011;63009;52.584;5.932;2023-11-19T11:26:58;20.98;;;3.85;;
74528;SDS011;63009;52.584;5.932;2023-11-19T11:29:31;17.20;;;3.40;;
74528;SDS011;63009;52.584;5.932;2023-11-19T11:35:18;20.52;;;3.88;;
74528;SDS011;63009;52.584;5.932;2023-11-19T11:38:07;20.42;;;4.18;;
74528;SDS011;63009;52.584;5.932;2023-11-19T11:40:33;23.83;;;4.00;;
74528;SDS011;63009;52.584;5.932;2023-11-19T11:42:59;17.20;;;2.58;;
74528;SDS011;63009;52.584;5.932;2023-11-19T11:45:38;19.27;;;3.17;;
74528;SDS011;63009;52.584;5.932;2023-11-19T11:48:10;21.08;;;3.50;;
74528;SDS011;63009;52.584;5.932;2023-11-19T11:50:36;22.40;;;3.22;;
74528;SDS011;63009;52.584;5.932;2023-11-19T11:53:13;23.95;;;3.70;;
74528;SDS011;63009;52.584;5.932;2023-11-19T12:00:39;17.00;;;3.55;;
74528;SDS011;63009;52.584;5.932;2023-11-19T12:03:06;21.65;;;2.95;;
74528;SDS011;63009;52.584;5.932;2023-11-19T12:05:33;16.67;;;2.70;;
74528;SDS011;63009;52.584;5.932;2023-11-19T12:08:03;22.10;;;3.03;;
74528;SDS011;63009;52.584;5.932;2023-11-19T12:10:32;25.13;;;3.70;;
74528;SDS011;63009;52.584;5.932;2023-11-19T12:13:03;23.35;;;3.50;;
74528;SDS011;63009;52.584;5.932;2023-11-19T12:15:31;18.35;;;3.08;;
74528;SDS011;63009;52.584;5.932;2023-11-19T12:17:57;18.88;;;3.38;;
74528;SDS011;63009;52.584;5.932;2023-11-19T12:20:23;20.13;;;3.63;;
74528;SDS011;63009;52.584;5.932;2023-11-19T12:22:50;22.92;;;3.40;;
74528;SDS011;63009;52.584;5.932;2023-11-19T12:25:17;17.50;;;2.50;;
74528;SDS011;63009;52.584;5.932;2023-11-19T12:27:46;22.95;;;3.95;;
74528;SDS011;63009;52.584;5.932;2023-11-19T12:30:31;22.98;;;3.20;;
74528;SDS011;63009;52.584;5.932;2023-11-19T12:32:56;19.08;;;3.03;;
74528;SDS011;63009;52.584;5.932;2023-11-19T12:35:22;19.45;;;3.47;;
74528;SDS011;63009;52.584;5.932;2023-11-19T12:37:49;15.27;;;3.15;;
74528;SDS011;63009;52.584;5.932;2023-11-19T12:40:19;21.95;;;3.42;;
74528;SDS011;63009;52.584;5.932;2023-11-19T12:42:46;19.17;;;3.28;;
74528;SDS011;63009;52.584;5.932;2023-11-19T12:45:15;21.05;;;3.33;;
74528;SDS011;63009;52.584;5.932;2023-11-19T12:47:42;15.95;;;3.25;;
74528;SDS011;63009;52.584;5.932;2023-11-19T12:50:08;24.98;;;3.92;;
74528;SDS011;63009;52.584;5.932;2023-11-19T12:52:34;18.95;;;3.85;;
74528;SDS011;63009;52.584;5.932;2023-11-19T12:55:00;22.70;;;3.63;;
74528;SDS011;63009;52.584;5.932;2023-11-19T12:57:36;20.67;;;3.28;;
74528;SDS011;63009;52.584;5.932;2023-11-19T13:00:03;19.63;;;3.28;;
74528;SDS011;63009;52.584;5.932;2023-11-19T13:02:49;19.17;;;3.17;;
74528;SDS011;63009;52.584;5.932;2023-11-19T13:10:27;16.50;;;2.97;;
74528;SDS011;63009;52.584;5.932;2023-11-19T13:13:02;17.08;;;3.63;;
74528;SDS011;63009;52.584;5.932;2023-11-19T13:15:32;16.90;;;3.13;;
74528;SDS011;63009;52.584;5.932;2023-11-19T13:17:58;17.27;;;2.70;;
74528;SDS011;63009;52.584;5.932;2023-11-19T13:20:24;24.00;;;3.50;;
74528;SDS011;63009;52.584;5.932;2023-11-19T13:22:56;16.50;;;2.80;;
74528;SDS011;63009;52.584;5.932;2023-11-19T13:25:28;16.90;;;2.40;;
74528;SDS011;63009;52.584;5.932;2023-11-19T13:27:54;19.73;;;3.38;;
74528;SDS011;63009;52.584;5.932;2023-11-19T13:30:20;19.73;;;3.45;;
74528;SDS011;63009;52.584;5.932;2023-11-19T13:32:47;18.65;;;3.05;;
74528;SDS011;63009;52.584;5.932;2023-11-19T13:35:13;20.40;;;3.55;;
74528;SDS011;63009;52.584;5.932;2023-11-19T13:37:39;23.15;;;3.38;;
74528;SDS011;63009;52.584;5.932;2023-11-19T13:40:05;19.00;;;4.35;;
74528;SDS011;63009;52.584;5.932;2023-11-19T13:42:32;20.48;;;3.47;;
74528;SDS011;63009;52.584;5.932;2023-11-19T13:44:57;17.85;;;2.92;;
74528;SDS011;63009;52.584;5.932;2023-11-19T13:47:22;14.27;;;2.27;;
74528;SDS011;63009;52.584;5.932;2023-11-19T13:49:48;16.83;;;3.35;;
74528;SDS011;63009;52.584;5.932;2023-11-19T13:52:14;21.45;;;3.15;;
74528;SDS011;63009;52.584;5.932;2023-11-19T13:54:39;19.93;;;3.07;;
74528;SDS011;63009;52.584;5.932;2023-11-19T13:57:05;16.60;;;3.13;;
74528;SDS011;63009;52.584;5.932;2023-11-19T13:59:30;16.48;;;3.70;;
74528;SDS011;63009;52.584;5.932;2023-11-19T14:01:59;18.48;;;3.08;;
74528;SDS011;63009;52.584;5.932;2023-11-19T14:04:24;23.87;;;3.27;;
74528;SDS011;63009;52.584;5.932;2023-11-19T14:06:50;19.35;;;3.13;;
74528;SDS011;63009;52.584;5.932;2023-11-19T14:09:15;21.05;;;3.75;;
74528;SDS011;63009;52.584;5.932;2023-11-19T14:11:41;19.55;;;4.22;;
74528;SDS011;63009;52.584;5.932;2023-11-19T14:14:07;17.45;;;3.85;;
74528;SDS011;63009;52.584;5.932;2023-11-19T14:16:33;16.55;;;2.70;;
74528;SDS011;63009;52.584;5.932;2023-11-19T14:18:59;17.55;;;2.95;;
74528;SDS011;63009;52.584;5.932;2023-11-19T14:21:24;16.45;;;3.10;;
74528;SDS011;63009;52.584;5.932;2023-11-19T14:23:51;18.30;;;2.97;;
74528;SDS011;63009;52.584;5.932;2023-11-19T14:26:17;14.35;;;2.90;;
74528;SDS011;63009;52.584;5.932;2023-11-19T14:28:42;16.97;;;2.80;;
74528;SDS011;63009;52.584;5.932;2023-11-19T14:31:07;16.63;;;2.50;;
74528;SDS011;63009;52.584;5.932;2023-11-19T14:33:32;20.63;;;3.07;;
74528;SDS011;63009;52.584;5.932;2023-11-19T14:36:00;21.30;;;3.22;;
74528;SDS011;63009;52.584;5.932;2023-11-19T14:38:25;16.90;;;2.43;;
74528;SDS011;63009;52.584;5.932;2023-11-19T14:40:50;14.77;;;2.50;;
74528;SDS011;63009;52.584;5.932;2023-11-19T14:43:16;17.77;;;2.93;;
74528;SDS011;63009;52.584;5.932;2023-11-19T14:45:41;18.48;;;3.85;;
74528;SDS011;63009;52.584;5.932;2023-11-19T14:48:06;20.70;;;4.80;;
74528;SDS011;63009;52.584;5.932;2023-11-19T14:50:32;20.37;;;3.93;;
74528;SDS011;63009;52.584;5.932;2023-11-19T14:52:57;18.63;;;3.23;;
74528;SDS011;63009;52.584;5.932;2023-11-19T14:55:23;15.85;;;3.30;;